Terminal Aerodrome Forecast
Issued by NWS

Home | Current Version | Previous Version | Text Only | Print | Product List | Glossary On
Versions: 1 2 3 4 5 6 7 8 9 10 11 12 13 14 15 16 17 18 19
000
FTUS43 KSGF 300400 AAC
TAFBBG
TAF AMD
KBBG 300450Z 3005/3024 22005KT 4SM -RA BR SCT005
      TEMPO 3006/3007 OVC005
     FM300700 28005KT 5SM BR VCSH BKN004
     FM301200 32006KT 5SM BR OVC007
     FM302100 32008KT P6SM OVC012=

USA.gov is the U.S. government's official web portal to all federal, state and local government web resources and services.